KBLI

Bellingham International Airport

Bellingham, Washington, USA
KBLI 221126Z 2212/2312 17014G21KT P6SM -SHRA OVC022 FM222300 17009G16KT P6SM VCSH SCT025 BKN050 FM230500 17008KT P6SM VCSH OVC035 FM230800 16009KT P6SM BKN025
Issued Valid From Valid To
Sep-22 @ 11:26 UTC
(4 hours ago)
Sep-22 @ 12:00 UTC
(3 hours ago)
Sep-23 @ 12:00 UTC
(in 21 hours)
to
to
to
to
KBLI 221126Z 2212/2312 17014G21KT P6SM -SHRA OVC022 FM222300 17009G16KT P6SM VCSH SCT025 BKN050 FM230500 17008KT P6SM VCSH OVC035 FM230800 16009KT P6SM BKN025
Issued Sep-22 @ 11:26 UTC
(4 hours ago)
Valid From Sep-22 @ 12:00 UTC
(3 hours ago)
Valid To Sep-23 @ 12:00 UTC
(in 21 hours)
-
-
-
-